sensor_id;sensor_type;location;lat;lon;timestamp;P1;durP1;ratioP1;P2;durP2;ratioP2
9940;SDS011;5009;50.656;7.188;2022-11-12T00:01:36;13.67;;;12.13;;
9940;SDS011;5009;50.656;7.188;2022-11-12T00:04:01;12.90;;;11.53;;
9940;SDS011;5009;50.656;7.188;2022-11-12T00:06:27;14.80;;;11.63;;
9940;SDS011;5009;50.656;7.188;2022-11-12T00:08:52;12.73;;;11.20;;
9940;SDS011;5009;50.656;7.188;2022-11-12T00:11:18;11.93;;;10.70;;
9940;SDS011;5009;50.656;7.188;2022-11-12T00:13:43;13.93;;;11.93;;
9940;SDS011;5009;50.656;7.188;2022-11-12T00:16:09;14.50;;;11.33;;
9940;SDS011;5009;50.656;7.188;2022-11-12T00:18:34;14.97;;;12.90;;
9940;SDS011;5009;50.656;7.188;2022-11-12T00:21:00;13.10;;;11.30;;
9940;SDS011;5009;50.656;7.188;2022-11-12T00:23:25;12.37;;;11.07;;
9940;SDS011;5009;50.656;7.188;2022-11-12T00:25:58;12.43;;;11.13;;
9940;SDS011;5009;50.656;7.188;2022-11-12T00:28:24;13.03;;;11.67;;
9940;SDS011;5009;50.656;7.188;2022-11-12T00:30:50;13.17;;;11.77;;
9940;SDS011;5009;50.656;7.188;2022-11-12T00:33:15;14.17;;;12.67;;
9940;SDS011;5009;50.656;7.188;2022-11-12T00:35:41;13.53;;;12.13;;
9940;SDS011;5009;50.656;7.188;2022-11-12T00:38:06;15.27;;;13.07;;
9940;SDS011;5009;50.656;7.188;2022-11-12T00:40:32;14.20;;;12.70;;
9940;SDS011;5009;50.656;7.188;2022-11-12T00:42:57;15.27;;;12.93;;
9940;SDS011;5009;50.656;7.188;2022-11-12T00:45:23;16.20;;;12.60;;
9940;SDS011;5009;50.656;7.188;2022-11-12T00:47:48;14.63;;;13.23;;
9940;SDS011;5009;50.656;7.188;2022-11-12T00:50:14;14.83;;;13.23;;
9940;SDS011;5009;50.656;7.188;2022-11-12T00:52:40;14.87;;;12.67;;
9940;SDS011;5009;50.656;7.188;2022-11-12T00:55:06;15.40;;;13.80;;
9940;SDS011;5009;50.656;7.188;2022-11-12T00:57:31;15.17;;;13.53;;
9940;SDS011;5009;50.656;7.188;2022-11-12T00:59:57;14.87;;;13.37;;
9940;SDS011;5009;50.656;7.188;2022-11-12T01:02:22;15.63;;;13.30;;
9940;SDS011;5009;50.656;7.188;2022-11-12T01:04:48;17.23;;;14.73;;
9940;SDS011;5009;50.656;7.188;2022-11-12T01:07:13;19.70;;;15.67;;
9940;SDS011;5009;50.656;7.188;2022-11-12T01:09:39;17.27;;;15.47;;
9940;SDS011;5009;50.656;7.188;2022-11-12T01:12:05;17.07;;;14.67;;
9940;SDS011;5009;50.656;7.188;2022-11-12T01:14:31;17.13;;;15.33;;
9940;SDS011;5009;50.656;7.188;2022-11-12T01:16:57;17.37;;;15.57;;
9940;SDS011;5009;50.656;7.188;2022-11-12T01:19:22;17.77;;;15.33;;
9940;SDS011;5009;50.656;7.188;2022-11-12T01:21:48;17.30;;;15.50;;
9940;SDS011;5009;50.656;7.188;2022-11-12T01:24:13;18.57;;;16.03;;
9940;SDS011;5009;50.656;7.188;2022-11-12T01:26:39;16.53;;;14.50;;
9940;SDS011;5009;50.656;7.188;2022-11-12T01:29:05;18.67;;;15.67;;
9940;SDS011;5009;50.656;7.188;2022-11-12T01:31:32;15.97;;;13.83;;
9940;SDS011;5009;50.656;7.188;2022-11-12T01:34:01;16.83;;;15.03;;
9940;SDS011;5009;50.656;7.188;2022-11-12T01:36:30;15.20;;;13.50;;
9940;SDS011;5009;50.656;7.188;2022-11-12T01:38:58;15.93;;;14.13;;
9940;SDS011;5009;50.656;7.188;2022-11-12T01:41:24;15.40;;;13.90;;
9940;SDS011;5009;50.656;7.188;2022-11-12T01:44:12;14.40;;;12.90;;
9940;SDS011;5009;50.656;7.188;2022-11-12T01:49:27;14.00;;;12.60;;
9940;SDS011;5009;50.656;7.188;2022-11-12T01:52:20;13.57;;;11.87;;
9940;SDS011;5009;50.656;7.188;2022-11-12T01:54:51;15.07;;;11.80;;
9940;SDS011;5009;50.656;7.188;2022-11-12T01:57:26;13.43;;;12.10;;
9940;SDS011;5009;50.656;7.188;2022-11-12T02:00:03;13.60;;;11.63;;
9940;SDS011;5009;50.656;7.188;2022-11-12T02:02:31;15.30;;;13.70;;
9940;SDS011;5009;50.656;7.188;2022-11-12T02:04:58;14.60;;;12.63;;
9940;SDS011;5009;50.656;7.188;2022-11-12T02:07:24;13.57;;;12.17;;
9940;SDS011;5009;50.656;7.188;2022-11-12T02:09:50;16.37;;;12.90;;
9940;SDS011;5009;50.656;7.188;2022-11-12T02:12:16;18.30;;;13.27;;
9940;SDS011;5009;50.656;7.188;2022-11-12T02:15:01;15.47;;;13.83;;
9940;SDS011;5009;50.656;7.188;2022-11-12T02:17:27;16.47;;;14.77;;
9940;SDS011;5009;50.656;7.188;2022-11-12T02:19:53;16.77;;;14.97;;
9940;SDS011;5009;50.656;7.188;2022-11-12T02:22:22;17.07;;;14.83;;
9940;SDS011;5009;50.656;7.188;2022-11-12T02:24:47;15.67;;;14.00;;
9940;SDS011;5009;50.656;7.188;2022-11-12T02:27:13;15.63;;;14.03;;
9940;SDS011;5009;50.656;7.188;2022-11-12T02:29:38;15.30;;;13.70;;
9940;SDS011;5009;50.656;7.188;2022-11-12T02:32:10;14.47;;;13.03;;
9940;SDS011;5009;50.656;7.188;2022-11-12T02:34:36;14.53;;;13.03;;
9940;SDS011;5009;50.656;7.188;2022-11-12T02:37:03;14.13;;;12.63;;
9940;SDS011;5009;50.656;7.188;2022-11-12T02:39:29;16.17;;;13.30;;
9940;SDS011;5009;50.656;7.188;2022-11-12T02:41:55;14.20;;;12.80;;
9940;SDS011;5009;50.656;7.188;2022-11-12T02:44:21;13.93;;;12.50;;
9940;SDS011;5009;50.656;7.188;2022-11-12T02:46:46;13.17;;;11.77;;
9940;SDS011;5009;50.656;7.188;2022-11-12T02:49:12;14.57;;;13.17;;
9940;SDS011;5009;50.656;7.188;2022-11-12T02:51:37;12.60;;;11.30;;
9940;SDS011;5009;50.656;7.188;2022-11-12T02:54:03;12.70;;;11.40;;
9940;SDS011;5009;50.656;7.188;2022-11-12T02:56:28;13.07;;;11.27;;
9940;SDS011;5009;50.656;7.188;2022-11-12T02:58:54;14.03;;;12.60;;
9940;SDS011;5009;50.656;7.188;2022-11-12T03:01:19;14.07;;;12.37;;
9940;SDS011;5009;50.656;7.188;2022-11-12T03:03:45;13.60;;;12.20;;
9940;SDS011;5009;50.656;7.188;2022-11-12T03:06:11;13.17;;;11.87;;
9940;SDS011;5009;50.656;7.188;2022-11-12T03:08:36;13.77;;;12.37;;
9940;SDS011;5009;50.656;7.188;2022-11-12T03:11:12;12.83;;;11.53;;
9940;SDS011;5009;50.656;7.188;2022-11-12T03:13:39;14.93;;;11.70;;
9940;SDS011;5009;50.656;7.188;2022-11-12T03:16:05;14.43;;;12.77;;
9940;SDS011;5009;50.656;7.188;2022-11-12T03:18:31;15.17;;;12.47;;
9940;SDS011;5009;50.656;7.188;2022-11-12T03:20:57;14.53;;;12.47;;
9940;SDS011;5009;50.656;7.188;2022-11-12T03:23:24;12.73;;;11.40;;
9940;SDS011;5009;50.656;7.188;2022-11-12T03:25:50;13.70;;;12.30;;
9940;SDS011;5009;50.656;7.188;2022-11-12T03:28:16;13.00;;;11.60;;
9940;SDS011;5009;50.656;7.188;2022-11-12T03:30:42;13.23;;;11.83;;
9940;SDS011;5009;50.656;7.188;2022-11-12T03:33:10;13.97;;;11.93;;
9940;SDS011;5009;50.656;7.188;2022-11-12T03:35:37;12.97;;;11.57;;
9940;SDS011;5009;50.656;7.188;2022-11-12T03:38:03;11.90;;;10.67;;
9940;SDS011;5009;50.656;7.188;2022-11-12T03:40:30;12.97;;;11.67;;
9940;SDS011;5009;50.656;7.188;2022-11-12T03:42:56;13.90;;;12.40;;
9940;SDS011;5009;50.656;7.188;2022-11-12T03:45:22;13.13;;;11.23;;
9940;SDS011;5009;50.656;7.188;2022-11-12T03:47:50;12.00;;;10.77;;
9940;SDS011;5009;50.656;7.188;2022-11-12T03:50:18;13.60;;;11.47;;
9940;SDS011;5009;50.656;7.188;2022-11-12T03:52:46;13.17;;;11.77;;
9940;SDS011;5009;50.656;7.188;2022-11-12T03:55:13;14.20;;;11.83;;
9940;SDS011;5009;50.656;7.188;2022-11-12T03:57:40;14.90;;;12.67;;
9940;SDS011;5009;50.656;7.188;2022-11-12T04:00:06;11.93;;;10.73;;
9940;SDS011;5009;50.656;7.188;2022-11-12T04:02:33;13.80;;;12.40;;
9940;SDS011;5009;50.656;7.188;2022-11-12T04:04:59;13.07;;;11.70;;
9940;SDS011;5009;50.656;7.188;2022-11-12T04:07:43;13.27;;;11.87;;
9940;SDS011;5009;50.656;7.188;2022-11-12T04:10:27;13.13;;;11.73;;
9940;SDS011;5009;50.656;7.188;2022-11-12T04:12:53;14.23;;;12.60;;
9940;SDS011;5009;50.656;7.188;2022-11-12T04:15:38;16.53;;;12.33;;
9940;SDS011;5009;50.656;7.188;2022-11-12T04:18:04;12.97;;;11.60;;
9940;SDS011;5009;50.656;7.188;2022-11-12T04:20:48;14.33;;;12.23;;
9940;SDS011;5009;50.656;7.188;2022-11-12T04:23:32;13.13;;;11.73;;
9940;SDS011;5009;50.656;7.188;2022-11-12T04:25:58;14.70;;;12.20;;
9940;SDS011;5009;50.656;7.188;2022-11-12T04:28:42;12.90;;;11.50;;
9940;SDS011;5009;50.656;7.188;2022-11-12T04:31:28;13.83;;;11.93;;
9940;SDS011;5009;50.656;7.188;2022-11-12T04:33:53;13.20;;;11.50;;
9940;SDS011;5009;50.656;7.188;2022-11-12T04:36:19;16.10;;;13.07;;
9940;SDS011;5009;50.656;7.188;2022-11-12T04:38:44;13.73;;;12.20;;
9940;SDS011;5009;50.656;7.188;2022-11-12T04:41:10;13.30;;;11.90;;
9940;SDS011;5009;50.656;7.188;2022-11-12T04:43:54;12.70;;;11.47;;
9940;SDS011;5009;50.656;7.188;2022-11-12T04:46:38;13.33;;;11.93;;
9940;SDS011;5009;50.656;7.188;2022-11-12T04:49:04;13.00;;;11.70;;
9940;SDS011;5009;50.656;7.188;2022-11-12T04:51:29;13.73;;;12.07;;
9940;SDS011;5009;50.656;7.188;2022-11-12T04:54:13;13.13;;;11.73;;
9940;SDS011;5009;50.656;7.188;2022-11-12T04:56:39;13.63;;;12.23;;
9940;SDS011;5009;50.656;7.188;2022-11-12T04:59:04;12.07;;;10.83;;
9940;SDS011;5009;50.656;7.188;2022-11-12T05:01:30;14.00;;;11.90;;
9940;SDS011;5009;50.656;7.188;2022-11-12T05:03:56;13.40;;;11.80;;
9940;SDS011;5009;50.656;7.188;2022-11-12T05:06:21;16.33;;;12.10;;
9940;SDS011;5009;50.656;7.188;2022-11-12T05:09:26;12.53;;;11.23;;
9940;SDS011;5009;50.656;7.188;2022-11-12T05:11:52;14.33;;;12.83;;
9940;SDS011;5009;50.656;7.188;2022-11-12T05:14:22;14.20;;;11.40;;
9940;SDS011;5009;50.656;7.188;2022-11-12T05:16:48;13.47;;;11.87;;
9940;SDS011;5009;50.656;7.188;2022-11-12T05:19:14;14.63;;;12.13;;
9940;SDS011;5009;50.656;7.188;2022-11-12T05:21:40;12.53;;;11.23;;
9940;SDS011;5009;50.656;7.188;2022-11-12T05:24:24;12.80;;;11.50;;
9940;SDS011;5009;50.656;7.188;2022-11-12T05:26:50;13.73;;;11.00;;
9940;SDS011;5009;50.656;7.188;2022-11-12T05:29:16;14.30;;;12.30;;
9940;SDS011;5009;50.656;7.188;2022-11-12T05:31:42;12.87;;;11.57;;
9940;SDS011;5009;50.656;7.188;2022-11-12T05:34:08;12.70;;;11.40;;
9940;SDS011;5009;50.656;7.188;2022-11-12T05:36:34;13.43;;;11.93;;
9940;SDS011;5009;50.656;7.188;2022-11-12T05:39:00;13.17;;;11.73;;
9940;SDS011;5009;50.656;7.188;2022-11-12T05:41:25;12.67;;;11.20;;
9940;SDS011;5009;50.656;7.188;2022-11-12T05:43:51;12.00;;;10.73;;
9940;SDS011;5009;50.656;7.188;2022-11-12T05:46:17;12.50;;;10.73;;
9940;SDS011;5009;50.656;7.188;2022-11-12T05:48:42;10.67;;;9.67;;
9940;SDS011;5009;50.656;7.188;2022-11-12T05:51:08;10.87;;;9.37;;
9940;SDS011;5009;50.656;7.188;2022-11-12T05:53:34;11.07;;;9.90;;
9940;SDS011;5009;50.656;7.188;2022-11-12T05:56:03;11.93;;;9.97;;
9940;SDS011;5009;50.656;7.188;2022-11-12T05:58:29;11.97;;;10.23;;
9940;SDS011;5009;50.656;7.188;2022-11-12T06:00:55;12.47;;;10.93;;
9940;SDS011;5009;50.656;7.188;2022-11-12T06:03:21;10.63;;;9.33;;
9940;SDS011;5009;50.656;7.188;2022-11-12T06:05:46;12.17;;;10.87;;
9940;SDS011;5009;50.656;7.188;2022-11-12T06:08:12;11.60;;;10.37;;
9940;SDS011;5009;50.656;7.188;2022-11-12T06:10:38;12.13;;;10.53;;
9940;SDS011;5009;50.656;7.188;2022-11-12T06:13:03;11.83;;;10.13;;
9940;SDS011;5009;50.656;7.188;2022-11-12T06:15:29;11.13;;;9.90;;
9940;SDS011;5009;50.656;7.188;2022-11-12T06:17:55;10.90;;;9.80;;
9940;SDS011;5009;50.656;7.188;2022-11-12T06:20:21;11.33;;;9.67;;
9940;SDS011;5009;50.656;7.188;2022-11-12T06:22:47;11.03;;;9.03;;
9940;SDS011;5009;50.656;7.188;2022-11-12T06:25:12;11.30;;;10.03;;
9940;SDS011;5009;50.656;7.188;2022-11-12T06:27:38;10.60;;;9.03;;
9940;SDS011;5009;50.656;7.188;2022-11-12T06:30:05;10.50;;;9.40;;
9940;SDS011;5009;50.656;7.188;2022-11-12T06:32:31;9.77;;;8.73;;
9940;SDS011;5009;50.656;7.188;2022-11-12T06:34:57;11.10;;;10.00;;
9940;SDS011;5009;50.656;7.188;2022-11-12T06:37:22;9.97;;;8.90;;
9940;SDS011;5009;50.656;7.188;2022-11-12T06:39:48;9.70;;;8.70;;
9940;SDS011;5009;50.656;7.188;2022-11-12T06:42:13;10.43;;;9.33;;
9940;SDS011;5009;50.656;7.188;2022-11-12T06:44:39;10.17;;;9.17;;
9940;SDS011;5009;50.656;7.188;2022-11-12T06:47:05;11.17;;;10.07;;
9940;SDS011;5009;50.656;7.188;2022-11-12T06:49:31;11.40;;;10.30;;
9940;SDS011;5009;50.656;7.188;2022-11-12T06:51:56;10.10;;;9.00;;
9940;SDS011;5009;50.656;7.188;2022-11-12T06:54:22;8.67;;;7.80;;
9940;SDS011;5009;50.656;7.188;2022-11-12T06:56:47;10.83;;;9.50;;
9940;SDS011;5009;50.656;7.188;2022-11-12T06:59:13;10.40;;;8.87;;
9940;SDS011;5009;50.656;7.188;2022-11-12T07:01:39;9.50;;;8.60;;
9940;SDS011;5009;50.656;7.188;2022-11-12T07:04:04;9.67;;;8.77;;
9940;SDS011;5009;50.656;7.188;2022-11-12T07:06:30;11.00;;;8.43;;
9940;SDS011;5009;50.656;7.188;2022-11-12T07:08:57;9.20;;;8.30;;
9940;SDS011;5009;50.656;7.188;2022-11-12T07:11:23;9.93;;;8.57;;
9940;SDS011;5009;50.656;7.188;2022-11-12T07:13:48;9.83;;;8.70;;
9940;SDS011;5009;50.656;7.188;2022-11-12T07:16:14;8.93;;;8.03;;
9940;SDS011;5009;50.656;7.188;2022-11-12T07:18:43;9.83;;;8.63;;
9940;SDS011;5009;50.656;7.188;2022-11-12T07:21:11;8.67;;;7.77;;
9940;SDS011;5009;50.656;7.188;2022-11-12T07:23:38;9.23;;;8.33;;
9940;SDS011;5009;50.656;7.188;2022-11-12T07:26:11;9.73;;;8.43;;
9940;SDS011;5009;50.656;7.188;2022-11-12T07:28:45;9.77;;;8.77;;
9940;SDS011;5009;50.656;7.188;2022-11-12T07:31:12;8.77;;;7.97;;
9940;SDS011;5009;50.656;7.188;2022-11-12T07:33:39;9.53;;;8.60;;
9940;SDS011;5009;50.656;7.188;2022-11-12T07:36:06;10.33;;;9.03;;
9940;SDS011;5009;50.656;7.188;2022-11-12T07:38:34;10.93;;;9.00;;
9940;SDS011;5009;50.656;7.188;2022-11-12T07:41:01;10.20;;;9.20;;
9940;SDS011;5009;50.656;7.188;2022-11-12T07:43:29;10.53;;;9.10;;
9940;SDS011;5009;50.656;7.188;2022-11-12T07:45:59;10.97;;;9.90;;
9940;SDS011;5009;50.656;7.188;2022-11-12T07:48:28;10.80;;;9.73;;
9940;SDS011;5009;50.656;7.188;2022-11-12T07:53:39;9.63;;;8.73;;
9940;SDS011;5009;50.656;7.188;2022-11-12T07:56:06;11.73;;;9.87;;
9940;SDS011;5009;50.656;7.188;2022-11-12T07:58:33;10.07;;;9.07;;
9940;SDS011;5009;50.656;7.188;2022-11-12T08:03:33;11.57;;;10.37;;
9940;SDS011;5009;50.656;7.188;2022-11-12T08:05:59;9.90;;;8.93;;
9940;SDS011;5009;50.656;7.188;2022-11-12T08:08:26;10.87;;;9.80;;
9940;SDS011;5009;50.656;7.188;2022-11-12T08:10:55;11.10;;;10.10;;
9940;SDS011;5009;50.656;7.188;2022-11-12T08:13:22;11.67;;;9.93;;
9940;SDS011;5009;50.656;7.188;2022-11-12T08:15:48;11.73;;;10.27;;
9940;SDS011;5009;50.656;7.188;2022-11-12T08:18:14;12.53;;;11.33;;
9940;SDS011;5009;50.656;7.188;2022-11-12T08:20:39;12.00;;;10.47;;
9940;SDS011;5009;50.656;7.188;2022-11-12T08:23:05;12.33;;;11.10;;
9940;SDS011;5009;50.656;7.188;2022-11-12T08:25:31;11.07;;;10.07;;
9940;SDS011;5009;50.656;7.188;2022-11-12T08:27:57;11.17;;;10.07;;
9940;SDS011;5009;50.656;7.188;2022-11-12T08:30:24;11.40;;;10.20;;
9940;SDS011;5009;50.656;7.188;2022-11-12T08:32:59;11.67;;;10.47;;
9940;SDS011;5009;50.656;7.188;2022-11-12T08:35:30;11.10;;;10.00;;
9940;SDS011;5009;50.656;7.188;2022-11-12T08:37:59;10.73;;;9.63;;
9940;SDS011;5009;50.656;7.188;2022-11-12T08:40:27;11.73;;;10.63;;
9940;SDS011;5009;50.656;7.188;2022-11-12T08:43:00;11.97;;;10.77;;
9940;SDS011;5009;50.656;7.188;2022-11-12T08:45:31;12.30;;;11.03;;
9940;SDS011;5009;50.656;7.188;2022-11-12T08:47:58;12.57;;;11.27;;
9940;SDS011;5009;50.656;7.188;2022-11-12T08:50:26;11.93;;;10.83;;
9940;SDS011;5009;50.656;7.188;2022-11-12T08:52:51;10.73;;;9.63;;
9940;SDS011;5009;50.656;7.188;2022-11-12T08:55:17;10.90;;;9.77;;
9940;SDS011;5009;50.656;7.188;2022-11-12T08:57:43;11.33;;;10.23;;
9940;SDS011;5009;50.656;7.188;2022-11-12T09:00:12;10.23;;;9.23;;
9940;SDS011;5009;50.656;7.188;2022-11-12T09:02:38;10.83;;;9.83;;
9940;SDS011;5009;50.656;7.188;2022-11-12T09:05:03;10.00;;;9.07;;
9940;SDS011;5009;50.656;7.188;2022-11-12T09:07:30;10.07;;;9.17;;
9940;SDS011;5009;50.656;7.188;2022-11-12T09:09:56;10.03;;;9.03;;
9940;SDS011;5009;50.656;7.188;2022-11-12T09:12:22;9.17;;;8.27;;
9940;SDS011;5009;50.656;7.188;2022-11-12T09:14:47;9.77;;;8.80;;
9940;SDS011;5009;50.656;7.188;2022-11-12T09:17:13;9.00;;;8.20;;
9940;SDS011;5009;50.656;7.188;2022-11-12T09:19:39;9.13;;;8.33;;
9940;SDS011;5009;50.656;7.188;2022-11-12T09:22:05;8.47;;;7.67;;
9940;SDS011;5009;50.656;7.188;2022-11-12T09:24:31;8.53;;;7.83;;
9940;SDS011;5009;50.656;7.188;2022-11-12T09:26:56;10.17;;;9.23;;
9940;SDS011;5009;50.656;7.188;2022-11-12T09:29:22;8.97;;;8.17;;
9940;SDS011;5009;50.656;7.188;2022-11-12T09:31:47;9.50;;;8.60;;
9940;SDS011;5009;50.656;7.188;2022-11-12T09:34:13;10.17;;;9.20;;
9940;SDS011;5009;50.656;7.188;2022-11-12T09:36:39;9.70;;;8.80;;
9940;SDS011;5009;50.656;7.188;2022-11-12T09:39:04;9.30;;;8.40;;
9940;SDS011;5009;50.656;7.188;2022-11-12T09:41:33;9.40;;;8.50;;
9940;SDS011;5009;50.656;7.188;2022-11-12T09:44:02;9.53;;;8.63;;
9940;SDS011;5009;50.656;7.188;2022-11-12T09:46:54;8.80;;;8.00;;
9940;SDS011;5009;50.656;7.188;2022-11-12T09:49:24;9.07;;;8.03;;
9940;SDS011;5009;50.656;7.188;2022-11-12T09:54:24;8.80;;;7.90;;
9940;SDS011;5009;50.656;7.188;2022-11-12T09:56:55;8.63;;;7.83;;
9940;SDS011;5009;50.656;7.188;2022-11-12T09:59:21;8.80;;;7.90;;
9940;SDS011;5009;50.656;7.188;2022-11-12T10:07:41;7.70;;;6.93;;
9940;SDS011;5009;50.656;7.188;2022-11-12T10:13:24;8.30;;;7.00;;
9940;SDS011;5009;50.656;7.188;2022-11-12T10:16:06;8.20;;;7.50;;
9940;SDS011;5009;50.656;7.188;2022-11-12T10:24:36;8.07;;;7.37;;
9940;SDS011;5009;50.656;7.188;2022-11-12T10:27:19;8.03;;;7.23;;
9940;SDS011;5009;50.656;7.188;2022-11-12T10:29:54;10.73;;;8.20;;
9940;SDS011;5009;50.656;7.188;2022-11-12T10:32:27;10.77;;;7.83;;
9940;SDS011;5009;50.656;7.188;2022-11-12T10:34:53;7.73;;;7.03;;
9940;SDS011;5009;50.656;7.188;2022-11-12T10:37:30;10.40;;;8.27;;
9940;SDS011;5009;50.656;7.188;2022-11-12T10:43:04;8.60;;;7.70;;
9940;SDS011;5009;50.656;7.188;2022-11-12T10:45:50;9.23;;;8.27;;
9940;SDS011;5009;50.656;7.188;2022-11-12T10:48:23;10.63;;;7.47;;
9940;SDS011;5009;50.656;7.188;2022-11-12T10:50:52;8.50;;;7.60;;
9940;SDS011;5009;50.656;7.188;2022-11-12T10:53:30;8.17;;;7.37;;
9940;SDS011;5009;50.656;7.188;2022-11-12T10:55:56;8.57;;;7.77;;
9940;SDS011;5009;50.656;7.188;2022-11-12T10:58:24;10.27;;;7.70;;
9940;SDS011;5009;50.656;7.188;2022-11-12T11:01:22;9.73;;;8.63;;
9940;SDS011;5009;50.656;7.188;2022-11-12T11:03:54;8.53;;;7.70;;
9940;SDS011;5009;50.656;7.188;2022-11-12T11:06:23;8.23;;;7.33;;
9940;SDS011;5009;50.656;7.188;2022-11-12T11:08:51;8.60;;;7.70;;
9940;SDS011;5009;50.656;7.188;2022-11-12T11:11:19;8.17;;;7.30;;
9940;SDS011;5009;50.656;7.188;2022-11-12T11:13:51;8.57;;;7.77;;
9940;SDS011;5009;50.656;7.188;2022-11-12T11:16:27;9.73;;;8.73;;
9940;SDS011;5009;50.656;7.188;2022-11-12T11:32:48;8.70;;;7.80;;
9940;SDS011;5009;50.656;7.188;2022-11-12T11:35:52;9.60;;;8.60;;
9940;SDS011;5009;50.656;7.188;2022-11-12T11:38:32;8.83;;;7.93;;
9940;SDS011;5009;50.656;7.188;2022-11-12T11:46:50;8.50;;;7.70;;
9940;SDS011;5009;50.656;7.188;2022-11-12T11:49:46;9.43;;;7.80;;
9940;SDS011;5009;50.656;7.188;2022-11-12T11:57:54;8.27;;;7.47;;
9940;SDS011;5009;50.656;7.188;2022-11-12T12:06:25;8.83;;;7.67;;
9940;SDS011;5009;50.656;7.188;2022-11-12T12:09:05;9.00;;;8.10;;
9940;SDS011;5009;50.656;7.188;2022-11-12T12:16:55;8.60;;;7.53;;
9940;SDS011;5009;50.656;7.188;2022-11-12T12:19:37;8.77;;;7.90;;
9940;SDS011;5009;50.656;7.188;2022-11-12T12:25:14;9.37;;;8.07;;
9940;SDS011;5009;50.656;7.188;2022-11-12T12:28:31;9.60;;;8.70;;
9940;SDS011;5009;50.656;7.188;2022-11-12T12:30:40;8.60;;;7.80;;
9940;SDS011;5009;50.656;7.188;2022-11-12T12:38:27;9.60;;;8.63;;
9940;SDS011;5009;50.656;7.188;2022-11-12T12:41:44;10.37;;;8.43;;
9940;SDS011;5009;50.656;7.188;2022-11-12T12:44:13;9.17;;;7.37;;
9940;SDS011;5009;50.656;7.188;2022-11-12T12:46:40;8.53;;;7.73;;
9940;SDS011;5009;50.656;7.188;2022-11-12T12:49:31;8.40;;;7.60;;
9940;SDS011;5009;50.656;7.188;2022-11-12T12:52:00;8.70;;;7.80;;
9940;SDS011;5009;50.656;7.188;2022-11-12T12:57:04;8.67;;;7.77;;
9940;SDS011;5009;50.656;7.188;2022-11-12T12:59:49;8.97;;;8.00;;
9940;SDS011;5009;50.656;7.188;2022-11-12T13:02:20;8.73;;;7.93;;
9940;SDS011;5009;50.656;7.188;2022-11-12T13:07:19;8.57;;;7.63;;
9940;SDS011;5009;50.656;7.188;2022-11-12T13:21:13;10.77;;;7.63;;
9940;SDS011;5009;50.656;7.188;2022-11-12T13:23:42;8.70;;;7.90;;
9940;SDS011;5009;50.656;7.188;2022-11-12T13:38:18;8.37;;;7.57;;
9940;SDS011;5009;50.656;7.188;2022-11-12T13:48:28;12.17;;;10.47;;
9940;SDS011;5009;50.656;7.188;2022-11-12T13:50:58;11.53;;;10.30;;
9940;SDS011;5009;50.656;7.188;2022-11-12T13:53:28;10.60;;;8.93;;
9940;SDS011;5009;50.656;7.188;2022-11-12T13:55:57;8.30;;;7.50;;
9940;SDS011;5009;50.656;7.188;2022-11-12T13:58:27;8.20;;;7.40;;
9940;SDS011;5009;50.656;7.188;2022-11-12T14:00:55;8.00;;;7.20;;
9940;SDS011;5009;50.656;7.188;2022-11-12T14:03:23;8.67;;;7.87;;
9940;SDS011;5009;50.656;7.188;2022-11-12T14:05:52;7.80;;;7.00;;
9940;SDS011;5009;50.656;7.188;2022-11-12T14:11:19;7.60;;;6.47;;
9940;SDS011;5009;50.656;7.188;2022-11-12T14:14:06;6.40;;;5.87;;
9940;SDS011;5009;50.656;7.188;2022-11-12T14:19:29;10.53;;;9.13;;
9940;SDS011;5009;50.656;7.188;2022-11-12T14:22:20;13.47;;;9.90;;
9940;SDS011;5009;50.656;7.188;2022-11-12T14:24:49;11.50;;;9.53;;
9940;SDS011;5009;50.656;7.188;2022-11-12T14:32:47;9.90;;;8.90;;
9940;SDS011;5009;50.656;7.188;2022-11-12T14:38:02;11.57;;;9.70;;
9940;SDS011;5009;50.656;7.188;2022-11-12T14:40:52;13.53;;;9.53;;
9940;SDS011;5009;50.656;7.188;2022-11-12T14:43:21;11.03;;;9.10;;
9940;SDS011;5009;50.656;7.188;2022-11-12T14:45:57;13.60;;;11.30;;
9940;SDS011;5009;50.656;7.188;2022-11-12T14:48:24;12.00;;;10.60;;
9940;SDS011;5009;50.656;7.188;2022-11-12T14:50:51;11.27;;;10.17;;
9940;SDS011;5009;50.656;7.188;2022-11-12T14:54:06;11.33;;;10.20;;
9940;SDS011;5009;50.656;7.188;2022-11-12T14:56:23;10.77;;;9.67;;
9940;SDS011;5009;50.656;7.188;2022-11-12T14:58:58;10.27;;;9.17;;
9940;SDS011;5009;50.656;7.188;2022-11-12T15:01:31;10.50;;;9.03;;
9940;SDS011;5009;50.656;7.188;2022-11-12T15:06:36;8.07;;;7.27;;
9940;SDS011;5009;50.656;7.188;2022-11-12T15:09:02;7.30;;;6.70;;
9940;SDS011;5009;50.656;7.188;2022-11-12T15:11:29;7.07;;;6.40;;
9940;SDS011;5009;50.656;7.188;2022-11-12T15:13:57;7.57;;;6.80;;
9940;SDS011;5009;50.656;7.188;2022-11-12T15:16:31;8.63;;;7.80;;
9940;SDS011;5009;50.656;7.188;2022-11-12T15:19:06;8.67;;;7.87;;
9940;SDS011;5009;50.656;7.188;2022-11-12T15:21:46;8.93;;;8.13;;
9940;SDS011;5009;50.656;7.188;2022-11-12T15:24:35;8.40;;;7.60;;
9940;SDS011;5009;50.656;7.188;2022-11-12T15:27:47;8.33;;;7.47;;
9940;SDS011;5009;50.656;7.188;2022-11-12T15:32:50;7.67;;;6.83;;
9940;SDS011;5009;50.656;7.188;2022-11-12T15:35:37;6.50;;;5.87;;
9940;SDS011;5009;50.656;7.188;2022-11-12T15:38:12;7.33;;;6.63;;
9940;SDS011;5009;50.656;7.188;2022-11-12T15:40:54;6.50;;;5.90;;
9940;SDS011;5009;50.656;7.188;2022-11-12T15:43:22;9.77;;;7.00;;
9940;SDS011;5009;50.656;7.188;2022-11-12T15:45:52;8.67;;;7.97;;
9940;SDS011;5009;50.656;7.188;2022-11-12T15:48:19;7.70;;;6.97;;
9940;SDS011;5009;50.656;7.188;2022-11-12T15:50:45;8.07;;;7.37;;
9940;SDS011;5009;50.656;7.188;2022-11-12T15:53:12;8.40;;;7.60;;
9940;SDS011;5009;50.656;7.188;2022-11-12T15:55:38;9.30;;;8.40;;
9940;SDS011;5009;50.656;7.188;2022-11-12T15:58:05;8.53;;;7.70;;
9940;SDS011;5009;50.656;7.188;2022-11-12T16:00:36;8.60;;;7.70;;
9940;SDS011;5009;50.656;7.188;2022-11-12T16:05:44;9.40;;;7.87;;
9940;SDS011;5009;50.656;7.188;2022-11-12T16:08:10;8.43;;;7.63;;
9940;SDS011;5009;50.656;7.188;2022-11-12T16:10:36;7.33;;;6.63;;
9940;SDS011;5009;50.656;7.188;2022-11-12T16:13:03;10.27;;;7.77;;
9940;SDS011;5009;50.656;7.188;2022-11-12T16:15:30;8.47;;;7.40;;
9940;SDS011;5009;50.656;7.188;2022-11-12T16:17:56;7.53;;;6.80;;
9940;SDS011;5009;50.656;7.188;2022-11-12T16:20:31;7.07;;;6.27;;
9940;SDS011;5009;50.656;7.188;2022-11-12T16:22:58;7.47;;;6.33;;
9940;SDS011;5009;50.656;7.188;2022-11-12T16:25:28;7.00;;;6.33;;
9940;SDS011;5009;50.656;7.188;2022-11-12T16:27:58;7.93;;;7.23;;
9940;SDS011;5009;50.656;7.188;2022-11-12T16:30:27;12.80;;;11.37;;
9940;SDS011;5009;50.656;7.188;2022-11-12T16:32:57;14.47;;;13.03;;
9940;SDS011;5009;50.656;7.188;2022-11-12T16:35:24;13.43;;;12.03;;
9940;SDS011;5009;50.656;7.188;2022-11-12T16:37:52;12.67;;;11.43;;
9940;SDS011;5009;50.656;7.188;2022-11-12T16:40:19;29.67;;;26.60;;
9940;SDS011;5009;50.656;7.188;2022-11-12T16:42:47;16.00;;;14.47;;
9940;SDS011;5009;50.656;7.188;2022-11-12T16:45:17;11.07;;;9.70;;
9940;SDS011;5009;50.656;7.188;2022-11-12T16:47:48;24.63;;;22.13;;
9940;SDS011;5009;50.656;7.188;2022-11-12T16:50:21;24.67;;;22.43;;
9940;SDS011;5009;50.656;7.188;2022-11-12T16:52:48;11.37;;;10.20;;
9940;SDS011;5009;50.656;7.188;2022-11-12T16:55:14;13.70;;;12.50;;
9940;SDS011;5009;50.656;7.188;2022-11-12T16:57:40;27.37;;;24.53;;
9940;SDS011;5009;50.656;7.188;2022-11-12T17:00:10;21.27;;;19.00;;
9940;SDS011;5009;50.656;7.188;2022-11-12T17:02:41;17.97;;;16.03;;
9940;SDS011;5009;50.656;7.188;2022-11-12T17:05:17;11.80;;;9.73;;
9940;SDS011;5009;50.656;7.188;2022-11-12T17:07:44;8.93;;;7.43;;
9940;SDS011;5009;50.656;7.188;2022-11-12T17:10:10;8.40;;;7.60;;
9940;SDS011;5009;50.656;7.188;2022-11-12T17:12:36;7.53;;;6.87;;
9940;SDS011;5009;50.656;7.188;2022-11-12T17:15:02;7.10;;;6.40;;
9940;SDS011;5009;50.656;7.188;2022-11-12T17:17:28;7.63;;;6.93;;
9940;SDS011;5009;50.656;7.188;2022-11-12T17:19:54;7.10;;;6.40;;
9940;SDS011;5009;50.656;7.188;2022-11-12T17:22:19;8.27;;;7.40;;
9940;SDS011;5009;50.656;7.188;2022-11-12T17:24:45;7.83;;;7.13;;
9940;SDS011;5009;50.656;7.188;2022-11-12T17:27:10;8.83;;;7.53;;